Time;durP1;ratioP1;P1;durP2;ratioP2;P2;SDS_P1;SDS_P2;PMS_P1;PMS_P2;Temp;Humidity;BMP_temperature;BMP_pressure;BME280_temperature;BME280_humidity;BME280_pressure;Samples;Min_cycle;Max_cycle;Signal;HPM_P1;HPM_P2
2022/12/08 00:18:57;;;;;;;1.40;0.40;;;;;;;15.90;89.34;100501.09;20953318;28;20048;-89
2022/12/08 00:28:59;;;;;;;1.30;0.40;;;;;;;15.89;89.23;100494.03;20960501;28;20501;-88
2022/12/08 00:39:01;;;;;;;0.20;0.20;;;;;;;15.89;89.07;100488.66;20959338;28;20131;-89
2022/12/08 00:49:03;;;;;;;0.68;0.40;;;;;;;15.60;88.88;100427.63;20959741;28;20048;-90
2022/12/08 00:59:06;;;;;;;0.50;0.30;;;;;;;15.88;88.86;100461.00;20957061;28;20109;-89
2022/12/08 01:09:09;;;;;;;0.80;0.40;;;;;;;15.79;88.76;100443.81;20957315;28;20655;-89
2022/12/08 01:19:12;;;;;;;0.32;0.30;;;;;;;15.88;88.62;100452.06;20915291;28;20047;-89
2022/12/08 01:29:13;;;;;;;0.40;0.20;;;;;;;15.68;88.32;100425.13;20956461;28;20404;-89
2022/12/08 01:39:17;;;;;;;0.30;0.20;;;;;;;15.86;88.41;100462.94;20939520;28;20053;-89
2022/12/08 01:49:22;;;;;;;0.65;0.30;;;;;;;15.86;88.33;100467.44;20958587;28;20048;-89
2022/12/08 01:59:24;;;;;;;0.30;0.30;;;;;;;15.44;87.97;100402.09;20938291;28;20135;-88
2022/12/08 02:09:26;;;;;;;1.02;0.40;;;;;;;15.46;87.80;100392.06;20941906;28;20119;-89
2022/12/08 02:19:55;;;;;;;0.30;0.30;;;;;;;15.84;87.69;100446.09;20931014;28;20044;-88
2022/12/08 02:30:05;;;;;;;0.20;0.20;;;;;;;15.83;87.61;100424.75;20970187;28;20049;-89
2022/12/08 02:40:10;;;;;;;0.45;0.30;;;;;;;15.84;87.69;100413.03;20971448;28;20044;-89
2022/12/08 02:50:12;;;;;;;0.68;0.30;;;;;;;15.83;87.43;100409.50;20967421;28;20067;-88
2022/12/08 03:00:22;;;;;;;0.47;0.40;;;;;;;15.84;87.33;100399.59;20950634;28;20048;-89
2022/12/08 03:10:31;;;;;;;0.20;0.20;;;;;;;15.83;87.24;100387.16;20939213;28;20036;-89
2022/12/08 03:20:33;;;;;;;0.30;0.30;;;;;;;15.60;87.01;100355.19;20947424;28;20052;-89
2022/12/08 03:30:38;;;;;;;0.45;0.35;;;;;;;15.81;87.00;100366.69;20931561;28;20048;-89
2022/12/08 03:40:40;;;;;;;0.20;0.20;;;;;;;15.81;87.04;100368.53;20947900;28;20106;-89
2022/12/08 03:50:41;;;;;;;0.63;0.20;;;;;;;15.81;86.90;100357.81;20913170;28;20049;-89
2022/12/08 04:00:43;;;;;;;0.73;0.20;;;;;;;15.80;86.86;100350.72;20945835;28;20064;-88
2022/12/08 04:10:44;;;;;;;0.68;0.30;;;;;;;15.80;86.72;100330.09;20935609;28;20066;-88
2022/12/08 04:20:46;;;;;;;0.17;0.17;;;;;;;15.80;86.77;100324.72;20960833;28;20048;-89
2022/12/08 04:30:48;;;;;;;0.40;0.20;;;;;;;15.71;86.50;100330.91;20926296;28;20501;-89
2022/12/08 04:40:49;;;;;;;0.45;0.20;;;;;;;15.69;86.39;100316.78;20942022;28;20049;-88
2022/12/08 04:50:51;;;;;;;0.10;0.10;;;;;;;15.78;86.12;100332.06;20958100;28;20055;-89
2022/12/08 05:00:52;;;;;;;0.40;0.20;;;;;;;15.78;86.25;100334.75;20957574;28;20056;-88
2022/12/08 05:11:02;;;;;;;0.20;0.15;;;;;;;15.78;86.11;100329.38;20948867;28;20052;-87
2022/12/08 05:21:04;;;;;;;0.30;0.20;;;;;;;15.78;86.06;100331.22;20939167;28;20055;-89
2022/12/08 05:31:06;;;;;;;0.50;0.30;;;;;;;15.76;86.05;100330.53;20916699;28;20488;-88
2022/12/08 05:41:13;;;;;;;0.32;0.20;;;;;;;15.70;85.93;100323.84;20933363;28;20071;-89
2022/12/08 05:51:17;;;;;;;0.35;0.30;;;;;;;15.76;85.78;100317.94;20948121;28;20048;-88
2022/12/08 06:01:24;;;;;;;0.35;0.30;;;;;;;15.75;85.52;100324.28;20982702;28;20128;-88
2022/12/08 06:11:27;;;;;;;0.55;0.20;;;;;;;15.76;85.91;100317.94;20965545;28;20044;-88
2022/12/08 06:21:29;;;;;;;0.30;0.15;;;;;;;15.50;85.47;100275.50;20938373;28;20049;-89
2022/12/08 06:31:30;;;;;;;0.90;0.15;;;;;;;15.41;85.33;100259.38;20925855;28;20075;-89
2022/12/08 06:41:32;;;;;;;0.32;0.20;;;;;;;15.74;85.43;100311.84;20968604;28;20069;-89
2022/12/08 06:51:53;;;;;;;0.13;0.10;;;;;;;15.63;85.17;100299.38;20925978;28;20052;-89
2022/12/08 07:01:56;;;;;;;0.10;0.10;;;;;;;15.23;84.08;100263.53;20939419;28;20052;-89
2022/12/08 07:11:57;;;;;;;0.73;0.38;;;;;;;15.78;84.49;100337.44;20960275;28;20048;-93
2022/12/08 07:21:59;;;;;;;0.82;0.30;;;;;;;15.66;85.42;100306.31;20938059;28;20064;-94
2022/12/08 07:32:00;;;;;;;0.95;0.20;;;;;;;15.85;85.69;100326.16;20917084;28;20036;-88
2022/12/08 07:42:02;;;;;;;1.35;0.30;;;;;;;15.84;85.45;100336.06;20934575;28;20048;-96
2022/12/08 07:52:03;;;;;;;2.05;0.50;;;;;;;15.81;85.53;100334.47;20920096;28;20048;-89
2022/12/08 08:02:05;;;;;;;1.00;0.30;;;;;;;15.41;85.78;100270.09;20921819;28;20045;-95
2022/12/08 08:12:24;;;;;;;0.88;0.32;;;;;;;15.77;85.77;100325.00;20923989;28;20053;-88
2022/12/08 08:22:35;;;;;;;1.02;0.32;;;;;;;15.56;85.63;100305.44;20913170;28;20055;-88
2022/12/08 08:32:38;;;;;;;2.78;0.30;;;;;;;15.55;85.74;100309.94;20926457;28;20054;-88
2022/12/08 08:42:39;;;;;;;0.60;0.40;;;;;;;15.59;85.74;100313.22;20929399;28;20607;-88
2022/12/08 08:52:41;;;;;;;0.38;0.15;;;;;;;15.71;85.55;100336.28;20902145;28;20048;-88
2022/12/08 09:02:43;;;;;;;0.77;0.30;;;;;;;15.71;85.72;100346.19;20930043;28;20052;-88
2022/12/08 09:12:44;;;;;;;0.77;0.40;;;;;;;15.66;85.49;100334.00;20915041;28;20044;-92
2022/12/08 09:22:45;;;;;;;1.38;0.35;;;;;;;15.70;85.33;100339.97;20936004;28;20056;-88
2022/12/08 09:32:47;;;;;;;0.40;0.30;;;;;;;15.70;85.37;100345.31;20907215;28;20052;-87
2022/12/08 09:43:02;;;;;;;0.90;0.50;;;;;;;15.69;85.29;100340.06;20924371;28;20063;-87
2022/12/08 09:53:46;;;;;;;0.40;0.32;;;;;;;15.50;85.29;100312.19;20891564;28;20040;-88
2022/12/08 10:03:48;;;;;;;0.55;0.20;;;;;;;15.51;85.12;100316.56;20853921;28;20056;-87
2022/12/08 10:14:09;;;;;;;0.40;0.20;;;;;;;15.68;85.13;100341.94;20960823;28;20535;-87
2022/12/08 10:24:32;;;;;;;1.65;0.30;;;;;;;15.67;85.04;100326.81;20916253;28;20166;-87
2022/12/08 10:34:34;;;;;;;0.32;0.20;;;;;;;15.63;84.98;100317.34;20915490;28;20067;-87
2022/12/08 10:44:57;;;;;;;0.88;0.25;;;;;;;15.68;84.92;100327.66;20940905;28;20052;-87
2022/12/08 10:54:59;;;;;;;0.52;0.30;;;;;;;15.40;84.64;100289.84;20935564;28;21049;-88
2022/12/08 11:05:00;;;;;;;0.50;0.30;;;;;;;15.69;84.71;100332.88;20917395;28;20514;-88
2022/12/08 11:15:04;;;;;;;0.82;0.30;;;;;;;15.36;84.89;100290.13;20901190;28;20437;-87
2022/12/08 11:25:11;;;;;;;0.75;0.20;;;;;;;15.68;84.86;100331.19;20927560;28;20040;-87
2022/12/08 11:35:22;;;;;;;0.43;0.20;;;;;;;15.62;84.70;100316.47;20920431;28;20049;-88
2022/12/08 11:45:26;;;;;;;0.20;0.20;;;;;;;15.69;84.65;100314.09;20913301;28;20056;-88
2022/12/08 11:55:33;;;;;;;0.40;0.27;;;;;;;15.22;84.34;100236.84;20901500;28;20056;-87
2022/12/08 12:05:58;;;;;;;0.63;0.35;;;;;;;15.71;84.54;100317.50;20931368;28;20057;-87
2022/12/08 12:16:41;;;;;;;0.20;0.20;;;;;;;15.71;84.53;100314.81;20932063;28;20532;-88
2022/12/08 12:27:11;;;;;;;0.20;0.20;;;;;;;15.71;84.42;100309.44;20912019;28;20056;-87
2022/12/08 12:37:16;;;;;;;0.30;0.10;;;;;;;15.61;84.37;100301.34;20903525;28;20445;-88
2022/12/08 12:47:51;;;;;;;0.20;0.20;;;;;;;15.71;84.44;100304.09;20929578;28;20674;-88
2022/12/08 12:57:57;;;;;;;0.90;0.30;;;;;;;15.71;84.55;100301.41;20930487;28;20055;-88
2022/12/08 13:07:59;;;;;;;1.25;0.20;;;;;;;15.72;84.35;100299.56;20922704;28;20055;-87
2022/12/08 13:18:00;;;;;;;0.43;0.20;;;;;;;15.71;84.40;100293.34;20903130;28;20558;-88
2022/12/08 13:28:15;;;;;;;1.25;0.30;;;;;;;15.52;84.25;100262.81;20928384;28;20063;-88
2022/12/08 13:38:18;;;;;;;0.65;0.20;;;;;;;15.71;84.26;100293.34;20909994;28;20040;-87
2022/12/08 13:48:37;;;;;;;0.52;0.30;;;;;;;15.64;84.44;100289.50;20911342;28;20053;-88
2022/12/08 13:59:06;;;;;;;0.38;0.30;;;;;;;15.56;84.41;100267.88;20912309;28;20056;-88
2022/12/08 14:09:15;;;;;;;0.45;0.20;;;;;;;14.59;84.27;100104.69;20921856;28;20056;-88
2022/12/08 14:19:20;;;;;;;0.75;0.20;;;;;;;15.69;84.15;100279.22;20942656;28;20070;-88
2022/12/08 14:29:46;;;;;;;0.70;0.20;;;;;;;15.70;84.15;100291.66;20929214;28;20109;-90
2022/12/08 14:39:48;;;;;;;0.63;0.30;;;;;;;15.69;84.38;100295.31;20946543;28;20048;-87
2022/12/08 14:49:51;;;;;;;0.88;0.30;;;;;;;15.71;84.19;100293.34;20947761;28;20048;-90
2022/12/08 14:59:52;;;;;;;0.65;0.28;;;;;;;15.57;84.14;100291.88;20929188;28;20052;-89
2022/12/08 15:10:15;;;;;;;0.40;0.20;;;;;;;15.70;84.12;100313.13;20917668;28;20132;-90
2022/12/08 15:20:39;;;;;;;0.50;0.35;;;;;;;15.71;84.35;100309.44;20920873;28;20057;-94
2022/12/08 15:30:41;;;;;;;0.77;0.20;;;;;;;15.59;84.16;100289.09;20938742;28;20050;-89
2022/12/08 15:40:42;;;;;;;0.88;0.30;;;;;;;15.72;84.17;100316.50;20921905;28;20141;-91
2022/12/08 15:50:45;;;;;;;0.40;0.30;;;;;;;15.71;83.98;100320.19;20926533;28;20095;-86
2022/12/08 16:00:47;;;;;;;0.75;0.30;;;;;;;15.71;84.10;100330.09;20900519;28;20053;-86
2022/12/08 16:13:49;;;;;;;0.63;0.28;;;;;;;15.72;83.85;100331.78;20926564;28;20498;-88
2022/12/08 16:21:37;;;;;;;0.70;0.28;;;;;;;15.72;83.76;100326.41;20925309;28;20145;-87
2022/12/08 16:31:58;;;;;;;0.40;0.40;;;;;;;15.60;83.95;100306.88;20918199;28;20508;-86
2022/12/08 16:52:19;;;;;;;0.93;0.20;;;;;;;15.38;83.54;100292.66;20916992;28;20050;-87
2022/12/08 17:02:21;;;;;;;0.35;0.25;;;;;;;15.60;83.75;100350.63;20910006;28;20044;-86
2022/12/08 17:12:22;;;;;;;0.82;0.30;;;;;;;15.70;83.67;100350.69;20955139;28;20122;-91
2022/12/08 17:22:24;;;;;;;0.20;0.20;;;;;;;15.71;83.76;100364.97;20957997;28;20044;-88
2022/12/08 17:32:25;;;;;;;0.63;0.38;;;;;;;15.57;83.83;100333.97;20927832;28;20080;-89
2022/12/08 17:42:27;;;;;;;0.75;0.40;;;;;;;15.70;83.54;100353.38;20920360;28;20052;-88
2022/12/08 17:52:29;;;;;;;0.57;0.20;;;;;;;15.71;83.77;100346.19;20906249;28;20049;-91
2022/12/08 18:02:32;;;;;;;0.70;0.30;;;;;;;14.74;83.73;100190.91;20871658;28;20660;-88
2022/12/08 18:12:33;;;;;;;0.45;0.20;;;;;;;15.16;83.83;100267.72;20910813;28;20045;-86
2022/12/08 18:22:35;;;;;;;0.55;0.30;;;;;;;15.72;84.04;100362.13;20956245;28;20082;-86
2022/12/08 18:32:36;;;;;;;0.68;0.50;;;;;;;15.73;83.97;100354.94;20927845;28;20060;-86
2022/12/08 18:42:38;;;;;;;0.55;0.30;;;;;;;15.73;84.01;100355.78;20920744;28;20057;-87
2022/12/08 18:52:39;;;;;;;0.25;0.25;;;;;;;15.71;83.96;100357.75;20935950;28;20072;-88
2022/12/08 19:02:41;;;;;;;0.55;0.38;;;;;;;15.29;83.54;100282.75;20957461;28;20099;-88
2022/12/08 19:12:43;;;;;;;0.75;0.40;;;;;;;15.62;83.84;100331.75;20947176;28;20516;-88
2022/12/08 19:22:45;;;;;;;0.80;0.73;;;;;;;15.58;83.56;100341.88;20967521;28;20110;-87
2022/12/08 19:32:47;;;;;;;1.00;0.43;;;;;;;15.71;83.75;100357.75;20966756;28;20568;-88
2022/12/08 19:53:11;;;;;;;0.40;0.30;;;;;;;15.72;83.47;100361.31;20890795;28;20048;-87
2022/12/08 20:03:17;;;;;;;0.53;0.30;;;;;;;15.50;83.60;100339.03;20830932;28;20056;-88
2022/12/08 20:23:40;;;;;;;0.28;0.20;;;;;;;15.72;83.42;100377.41;20881147;28;20082;-87
2022/12/08 20:33:41;;;;;;;0.47;0.22;;;;;;;15.71;83.33;100381.06;20861298;28;20594;-88
2022/12/08 20:43:43;;;;;;;0.85;0.25;;;;;;;15.52;83.56;100347.78;20893663;28;20057;-87
2022/12/08 20:53:46;;;;;;;0.47;0.20;;;;;;;15.71;83.27;100379.22;20877854;28;20178;-87
2022/12/08 21:03:48;;;;;;;0.43;0.25;;;;;;;15.71;83.45;100381.91;20859722;28;20404;-87
2022/12/08 21:13:50;;;;;;;0.22;0.20;;;;;;;15.72;83.04;100382.78;20859145;28;20087;-88
2022/12/08 21:23:52;;;;;;;0.30;0.30;;;;;;;15.60;83.27;100365.91;20876369;28;20052;-88
2022/12/08 21:33:53;;;;;;;0.20;0.20;;;;;;;15.72;83.26;100390.81;20875529;28;20060;-87
2022/12/08 21:43:55;;;;;;;0.75;0.40;;;;;;;15.70;83.25;100393.63;20891025;28;20497;-88
2022/12/08 21:53:57;;;;;;;0.90;0.40;;;;;;;15.71;83.05;100389.97;20840778;28;20088;-89
2022/12/08 22:03:58;;;;;;;0.30;0.30;;;;;;;15.71;83.06;100389.13;20873757;28;20053;-88
2022/12/08 22:14:00;;;;;;;0.30;0.30;;;;;;;15.44;82.82;100348.44;20873613;28;20045;-89
2022/12/08 22:24:02;;;;;;;0.45;0.20;;;;;;;15.71;82.72;100400.69;20873314;28;20390;-88
2022/12/08 22:34:04;;;;;;;0.38;0.30;;;;;;;15.70;82.73;100388.25;20871317;28;20431;-87
2022/12/08 22:44:06;;;;;;;0.10;0.10;;;;;;;15.71;82.80;100403.38;20886808;28;20053;-88
2022/12/08 22:54:09;;;;;;;0.43;0.35;;;;;;;15.29;82.60;100347.09;20886857;28;20045;-88
2022/12/08 23:04:11;;;;;;;0.20;0.20;;;;;;;15.33;82.57;100344.03;20887328;28;20132;-88
2022/12/08 23:14:18;;;;;;;0.25;0.20;;;;;;;15.71;82.71;100400.69;20868949;28;20517;-88
2022/12/08 23:24:20;;;;;;;0.22;0.22;;;;;;;15.71;82.56;100397.19;20885063;28;20063;-88
2022/12/08 23:34:21;;;;;;;0.50;0.20;;;;;;;15.49;82.44;100372.19;20884453;28;20049;-88
2022/12/08 23:44:23;;;;;;;0.10;0.10;;;;;;;15.70;82.60;100393.63;20898381;28;20049;-88
2022/12/08 23:54:25;;;;;;;0.20;0.20;;;;;;;15.69;82.63;100386.56;20882681;28;20060;-88
